This is the latest recevied weather packets stored in our database for station/object WX2P-13. If no packets are shown the sender has not sent any weather packets the latest 10 day(s).
| Time | Temp. | Humidity | Pressure | Rain* | Wind** | Luminosity | Snow |
|---|---|---|---|---|---|---|---|
| 1778001222 | 29.44° C | 52% | 1016.6 hPa | 0 mm | - | 189 W/m² | - |
| 1778000919 | 29.44° C | 54% | 1016.7 hPa | 0 mm | - | 628 W/m² | - |
| 1778000616 | 29.44° C | 53% | 1016.9 hPa | 0 mm | - | 661 W/m² | - |
| 1778000007 | 28.33° C | 55% | 1016.7 hPa | 0 mm | - | 278 W/m² | - |
| 1777999703 | 28.89° C | 54% | 1017.1 hPa | 0 mm | - | 190 W/m² | - |
| 1777999098 | 28.33° C | 55% | 1016.7 hPa | 0 mm | - | 804 W/m² | - |
| 1777998797 | 28.33° C | 54% | 1017 hPa | 0 mm | - | 218 W/m² | - |
| 1777998494 | 28.33° C | 56% | 1017 hPa | 0 mm | - | 801 W/m² | - |
| 1777998190 | 27.78° C | 56% | 1016.9 hPa | 0 mm | - | 217 W/m² | - |
| 1777997888 | 28.33° C | 55% | 1017 hPa | 0 mm | - | 168 W/m² | - |
| 1777997282 | 28.89° C | 55% | 1017.1 hPa | 0 mm | - | 832 W/m² | - |
| 1777996980 | 28.33° C | 55% | 1017 hPa | 0 mm | - | 583 W/m² | - |
| 1777996676 | 28.33° C | 56% | 1017.1 hPa | 0 mm | - | 658 W/m² | - |
| 1777996372 | 28.33° C | 55% | 1017.2 hPa | 0 mm | - | 248 W/m² | - |
| 1777995461 | 27.78° C | 59% | 1017.1 hPa | 0 mm | - | 523 W/m² | - |
| 1777995158 | 27.78° C | 65% | 1017.2 hPa | 0 mm | - | 255 W/m² | - |
| 1777994855 | 27.78° C | 64% | 1016.9 hPa | 0 mm | - | 355 W/m² | - |
| 1777994551 | 27.22° C | 65% | 1017 hPa | 0 mm | - | 223 W/m² | - |
| 1777994246 | 27.78° C | 64% | 1017.1 hPa | 0 mm | - | 172 W/m² | - |
| 1777993640 | 28.33° C | 62% | 1016.7 hPa | 0 mm | - | 253 W/m² | - |
| 1777993032 | 26.67° C | 66% | 1017.1 hPa | 0 mm | - | 855 W/m² | - |
| 1777991823 | 26.67° C | 67% | 1017 hPa | 0 mm | - | 348 W/m² | - |
| 1777991521 | 27.22° C | 68% | 1017 hPa | 0 mm | - | 298 W/m² | - |
| 1777991217 | 26.67° C | 68% | 1016.8 hPa | 0 mm | - | 660 W/m² | - |
| 1777990915 | 26.67° C | 68% | 1017 hPa | 0 mm | - | 718 W/m² | - |
* Rain latest hour (hover to see other rain measurements)
** Current wind speed in m/s (hover to see current wind gust speed)